createdAt,value
2022-08-19T00:01:43.976Z,23.60
2022-08-19T00:04:34.679Z,23.60
2022-08-19T00:07:20.920Z,23.70
2022-08-19T00:10:07.407Z,23.60
2022-08-19T00:12:53.434Z,23.60
2022-08-19T00:15:39.223Z,23.50
2022-08-19T00:18:25.223Z,23.50
2022-08-19T00:21:10.870Z,23.40
2022-08-19T00:23:59.127Z,23.40
2022-08-19T00:26:45.612Z,23.40
2022-08-19T00:29:31.611Z,23.40
2022-08-19T00:32:17.103Z,23.40
2022-08-19T00:35:03.895Z,23.30
2022-08-19T00:37:50.287Z,23.40
2022-08-19T00:40:35.772Z,23.30
2022-08-19T00:43:22.998Z,23.20
2022-08-19T00:46:08.491Z,23.10
2022-08-19T00:48:53.973Z,23.10
2022-08-19T00:51:39.789Z,23.20
2022-08-19T00:54:31.159Z,23.10
2022-08-19T00:57:18.104Z,23.10
2022-08-19T01:00:05.563Z,23.00
2022-08-19T01:02:52.761Z,23.00
2022-08-19T01:05:39.478Z,23.00
2022-08-19T01:08:25.055Z,22.90
2022-08-19T01:11:10.696Z,22.90
2022-08-19T01:13:56.875Z,22.90
2022-08-19T01:16:42.878Z,22.90
2022-08-19T01:19:28.306Z,22.90
2022-08-19T01:22:33.498Z,22.90
2022-08-19T01:25:20.947Z,22.90
2022-08-19T01:28:10.827Z,22.80
2022-08-19T01:30:56.484Z,22.80
2022-08-19T01:33:42.432Z,22.80
2022-08-19T01:36:31.398Z,22.80
2022-08-19T01:39:18.723Z,22.70
2022-08-19T01:42:05.320Z,22.70
2022-08-19T01:44:50.901Z,22.70
2022-08-19T01:47:36.729Z,22.70
2022-08-19T01:50:22.718Z,22.70
2022-08-19T01:53:11.191Z,22.70
2022-08-19T01:55:57.103Z,22.60
2022-08-19T01:58:47.279Z,22.60
2022-08-19T02:01:32.932Z,22.40
2022-08-19T02:04:18.712Z,22.40
2022-08-19T02:07:04.549Z,22.30
2022-08-19T02:09:49.967Z,22.30
2022-08-19T02:12:36.363Z,22.10
2022-08-19T02:15:23.036Z,22.00
2022-08-19T02:18:09.320Z,21.90
2022-08-19T02:20:55.004Z,21.80
2022-08-19T02:23:40.732Z,21.70
2022-08-19T02:26:27.654Z,21.70
2022-08-19T02:29:13.322Z,21.60
2022-08-19T02:31:59.113Z,21.60
2022-08-19T02:34:44.579Z,21.50
2022-08-19T02:37:48.924Z,21.50
2022-08-19T02:40:37.393Z,21.50
2022-08-19T02:43:23.224Z,21.50
2022-08-19T02:46:15.912Z,21.50
2022-08-19T02:49:03.812Z,21.50
2022-08-19T02:51:49.388Z,21.50
2022-08-19T02:54:35.385Z,21.40
2022-08-19T02:57:20.819Z,21.40
2022-08-19T03:00:08.123Z,21.30
2022-08-19T03:02:54.551Z,21.30
2022-08-19T03:05:49.317Z,21.30
2022-08-19T03:08:44.798Z,21.30
2022-08-19T03:11:31.628Z,21.40
2022-08-19T03:14:19.009Z,21.40
2022-08-19T03:17:05.496Z,21.40
2022-08-19T03:19:51.012Z,21.40
2022-08-19T03:22:36.755Z,21.30
2022-08-19T03:25:22.391Z,21.20
2022-08-19T03:28:08.362Z,21.20
2022-08-19T03:30:59.077Z,21.20
2022-08-19T03:33:46.848Z,21.40
2022-08-19T03:36:36.636Z,21.50
2022-08-19T03:39:22.720Z,21.50
2022-08-19T03:42:38.913Z,21.50
2022-08-19T03:45:13.920Z,21.60
2022-08-19T03:47:59.365Z,21.60
2022-08-19T03:50:45.293Z,21.70
2022-08-19T03:53:31.736Z,21.60
2022-08-19T03:56:17.264Z,21.60
2022-08-19T03:59:04.043Z,21.70
2022-08-19T04:01:49.692Z,21.60
2022-08-19T04:04:35.903Z,21.60
2022-08-19T04:07:22.479Z,21.60
2022-08-19T04:10:08.205Z,21.60
2022-08-19T04:12:56.055Z,21.60
2022-08-19T04:15:42.609Z,21.60
2022-08-19T04:18:33.590Z,21.60
2022-08-19T04:21:23.420Z,21.60
2022-08-19T04:24:12.729Z,21.60
2022-08-19T04:26:59.967Z,21.50
2022-08-19T04:29:45.274Z,21.50
2022-08-19T04:32:32.940Z,21.50
2022-08-19T04:35:21.047Z,21.40
2022-08-19T04:38:09.625Z,21.40
2022-08-19T04:41:13.723Z,21.30
2022-08-19T04:44:03.764Z,21.30
2022-08-19T04:46:51.330Z,21.30
2022-08-19T04:49:37.734Z,21.30
2022-08-19T04:52:23.336Z,21.20
2022-08-19T04:55:09.737Z,21.20
2022-08-19T04:57:55.311Z,21.10
2022-08-19T05:00:41.216Z,21.10
2022-08-19T05:03:30.467Z,21.00
2022-08-19T05:06:17.376Z,21.00
2022-08-19T05:09:06.675Z,21.00
2022-08-19T05:11:54.508Z,21.00
2022-08-19T05:14:39.813Z,21.10
2022-08-19T05:17:27.922Z,21.00
2022-08-19T05:20:33.224Z,21.00
2022-08-19T05:23:22.738Z,21.00
2022-08-19T05:26:10.384Z,21.00
2022-08-19T05:28:56.299Z,21.00
2022-08-19T05:31:42.272Z,21.00
2022-08-19T05:34:27.659Z,21.00
2022-08-19T05:37:13.531Z,21.10
2022-08-19T05:39:59.143Z,21.10
2022-08-19T05:42:44.779Z,21.10
2022-08-19T05:45:41.151Z,21.00
2022-08-19T05:48:27.499Z,21.10
2022-08-19T05:51:13.648Z,21.10
2022-08-19T05:54:03.792Z,21.10
2022-08-19T05:56:49.461Z,21.20
2022-08-19T05:59:36.479Z,21.10
2022-08-19T06:02:24.825Z,21.10
2022-08-19T06:05:10.806Z,21.10
2022-08-19T06:07:56.980Z,21.10
2022-08-19T06:10:42.638Z,21.10
2022-08-19T06:13:29.153Z,21.10
2022-08-19T06:16:21.971Z,21.20
2022-08-19T06:19:09.162Z,21.20
2022-08-19T06:21:54.666Z,21.20
2022-08-19T06:24:40.044Z,21.30
2022-08-19T06:27:25.871Z,21.30
2022-08-19T06:30:12.403Z,21.40
2022-08-19T06:32:57.820Z,21.40
2022-08-19T06:35:46.683Z,21.40
2022-08-19T06:38:34.434Z,21.40
2022-08-19T06:41:20.353Z,21.50
2022-08-19T06:44:06.379Z,21.60
2022-08-19T06:46:54.564Z,21.60
2022-08-19T06:49:40.430Z,21.60
2022-08-19T06:52:26.168Z,21.70
2022-08-19T06:55:11.796Z,21.70
2022-08-19T06:57:57.496Z,21.80
2022-08-19T07:00:43.018Z,21.80
2022-08-19T07:03:32.828Z,21.80
2022-08-19T07:06:43.572Z,21.90
2022-08-19T07:09:26.736Z,21.90
2022-08-19T07:12:16.284Z,21.90
2022-08-19T07:15:02.024Z,22.00
2022-08-19T07:17:52.733Z,22.00
2022-08-19T07:20:38.360Z,22.10
2022-08-19T07:23:24.953Z,22.10
2022-08-19T07:26:27.678Z,22.10
2022-08-19T07:29:14.357Z,22.10
2022-08-19T07:32:01.529Z,22.20
2022-08-19T07:34:47.313Z,22.20
2022-08-19T07:37:33.481Z,22.30
2022-08-19T07:40:19.421Z,22.30
2022-08-19T07:43:04.836Z,22.40
2022-08-19T07:45:50.440Z,22.40
2022-08-19T07:48:36.033Z,22.50
2022-08-19T07:51:36.025Z,22.60
2022-08-19T07:54:24.988Z,22.60
2022-08-19T07:57:10.713Z,22.60
2022-08-19T07:59:57.200Z,22.70
2022-08-19T08:02:43.533Z,22.60
2022-08-19T08:05:47.616Z,22.70
2022-08-19T08:08:51.643Z,22.70
2022-08-19T08:11:49.827Z,22.80
2022-08-19T08:14:50.386Z,22.80
2022-08-19T08:17:49.065Z,22.80
2022-08-19T08:20:36.702Z,22.90
2022-08-19T08:23:26.249Z,22.90
2022-08-19T08:26:13.996Z,23.00
2022-08-19T08:29:02.428Z,23.10
2022-08-19T08:32:00.062Z,23.10
2022-08-19T08:34:47.392Z,23.20
2022-08-19T08:37:37.613Z,23.30
2022-08-19T08:40:28.714Z,23.40
2022-08-19T08:43:27.655Z,23.40
2022-08-19T08:46:41.921Z,23.50
2022-08-19T08:49:35.069Z,23.60
2022-08-19T08:52:31.880Z,23.60
2022-08-19T08:55:24.650Z,23.60
2022-08-19T08:58:18.797Z,23.60
2022-08-19T09:01:04.375Z,23.70
2022-08-19T09:03:49.905Z,23.70
2022-08-19T09:06:56.236Z,23.70
2022-08-19T09:09:49.655Z,23.80
2022-08-19T09:12:39.306Z,23.90
2022-08-19T09:15:33.769Z,23.90
2022-08-19T09:18:22.650Z,23.90
2022-08-19T09:21:09.801Z,24.00
2022-08-19T09:23:55.493Z,24.10
2022-08-19T09:26:52.333Z,24.10
2022-08-19T09:29:38.556Z,24.20
2022-08-19T09:32:26.246Z,24.30
2022-08-19T09:35:13.632Z,24.40
2022-08-19T09:38:00.479Z,24.50
2022-08-19T09:40:45.996Z,24.60
2022-08-19T09:43:33.726Z,24.80
2022-08-19T09:46:30.030Z,24.80
2022-08-19T09:49:20.076Z,25.00
2022-08-19T09:52:08.936Z,25.00
2022-08-19T09:54:59.464Z,25.10
2022-08-19T09:57:45.312Z,25.20
2022-08-19T10:00:31.975Z,25.30
2022-08-19T10:03:17.734Z,25.30
2022-08-19T10:06:06.000Z,25.40
2022-08-19T10:09:01.529Z,25.50
2022-08-19T10:11:54.543Z,25.60
2022-08-19T10:14:40.839Z,25.70
2022-08-19T10:17:27.415Z,25.70
2022-08-19T10:20:17.981Z,25.80
2022-08-19T10:23:04.836Z,25.90
2022-08-19T10:25:50.787Z,25.90
2022-08-19T10:28:40.308Z,26.00
2022-08-19T10:31:59.707Z,26.10
2022-08-19T10:34:48.448Z,26.10
2022-08-19T10:37:37.858Z,26.20
2022-08-19T10:40:35.989Z,26.30
2022-08-19T10:43:21.729Z,26.40
2022-08-19T10:46:14.174Z,26.40
2022-08-19T10:49:03.164Z,26.40
2022-08-19T10:52:07.529Z,26.50
2022-08-19T10:55:14.619Z,26.50
2022-08-19T10:58:02.502Z,26.50
2022-08-19T11:00:54.465Z,26.60
2022-08-19T11:03:40.009Z,26.70
2022-08-19T11:06:28.386Z,26.80
2022-08-19T11:09:33.281Z,26.80
2022-08-19T11:12:20.459Z,26.90
2022-08-19T11:15:08.739Z,26.90
2022-08-19T11:17:55.427Z,27.00
2022-08-19T11:20:41.116Z,27.10
2022-08-19T11:23:26.770Z,27.20
2022-08-19T11:26:12.753Z,27.20
2022-08-19T11:28:59.578Z,27.40
2022-08-19T11:31:47.935Z,27.40
2022-08-19T11:34:33.889Z,27.50
2022-08-19T11:37:19.753Z,27.60
2022-08-19T11:40:07.166Z,27.70
2022-08-19T11:42:56.524Z,27.70
2022-08-19T11:45:42.468Z,27.80
2022-08-19T11:48:27.991Z,27.90
2022-08-19T11:51:17.055Z,27.90
2022-08-19T11:54:03.066Z,28.00
2022-08-19T11:56:49.983Z,28.00
2022-08-19T11:59:35.358Z,28.10
2022-08-19T12:02:21.184Z,28.20
2022-08-19T12:05:11.964Z,28.30
2022-08-19T12:07:58.401Z,28.40
2022-08-19T12:10:46.339Z,28.40
2022-08-19T12:13:32.351Z,28.60
2022-08-19T12:16:27.880Z,28.60
2022-08-19T12:19:14.780Z,28.60
2022-08-19T12:22:08.620Z,28.70
2022-08-19T12:24:54.817Z,28.70
2022-08-19T12:27:41.661Z,28.80
2022-08-19T12:30:28.832Z,28.90
2022-08-19T12:33:14.751Z,28.90
2022-08-19T12:36:10.849Z,29.10
2022-08-19T12:38:58.600Z,29.20
2022-08-19T12:41:51.292Z,29.30
2022-08-19T12:44:42.657Z,29.50
2022-08-19T12:47:28.157Z,29.60
2022-08-19T12:50:13.806Z,29.70
2022-08-19T12:52:59.208Z,29.70
2022-08-19T12:55:44.846Z,29.80
2022-08-19T12:58:30.712Z,30.00
2022-08-19T13:01:18.250Z,30.10
2022-08-19T13:04:08.773Z,30.30
2022-08-19T13:06:54.339Z,30.50
2022-08-19T13:09:43.419Z,30.60
2022-08-19T13:12:28.798Z,30.80
2022-08-19T13:15:16.901Z,31.00
2022-08-19T13:18:04.802Z,31.10
2022-08-19T13:20:52.943Z,31.30
2022-08-19T13:23:38.860Z,31.40
2022-08-19T13:26:25.049Z,31.60
2022-08-19T13:29:29.051Z,31.70
2022-08-19T13:32:33.016Z,31.90
2022-08-19T13:35:19.477Z,32.10
2022-08-19T13:38:05.871Z,32.20
2022-08-19T13:41:09.933Z,32.30
2022-08-19T13:43:58.040Z,32.50
2022-08-19T13:46:45.577Z,32.60
2022-08-19T13:49:31.974Z,32.70
2022-08-19T13:52:17.473Z,32.50
2022-08-19T13:55:03.385Z,32.50
2022-08-19T13:57:57.764Z,32.50
2022-08-19T14:00:46.207Z,32.50
2022-08-19T14:03:32.304Z,32.30
2022-08-19T14:06:18.384Z,32.10
2022-08-19T14:09:05.592Z,31.70
2022-08-19T14:11:51.850Z,31.40
2022-08-19T14:14:39.131Z,31.30
2022-08-19T14:17:24.550Z,31.20
2022-08-19T14:20:17.622Z,31.20
2022-08-19T14:23:06.618Z,31.30
2022-08-19T14:25:52.292Z,31.50
2022-08-19T14:28:38.575Z,31.90
2022-08-19T14:31:29.017Z,32.20
2022-08-19T14:34:16.565Z,32.60
2022-08-19T14:37:02.231Z,32.90
2022-08-19T14:39:47.617Z,32.90
2022-08-19T14:42:33.053Z,33.00
2022-08-19T14:45:18.893Z,33.10
2022-08-19T14:48:18.817Z,33.30
2022-08-19T14:51:05.864Z,33.40
2022-08-19T14:53:52.052Z,33.50
2022-08-19T14:56:37.612Z,33.60
2022-08-19T14:59:23.282Z,33.70
2022-08-19T15:02:20.414Z,33.60
2022-08-19T15:05:14.374Z,33.40
2022-08-19T15:08:04.628Z,33.20
2022-08-19T15:10:50.347Z,33.10
2022-08-19T15:13:36.842Z,33.00
2022-08-19T15:16:23.435Z,32.80
2022-08-19T15:19:09.965Z,32.40
2022-08-19T15:21:55.777Z,32.10
2022-08-19T15:24:47.895Z,31.80
2022-08-19T15:27:34.024Z,31.50
2022-08-19T15:30:25.609Z,31.40
2022-08-19T15:33:15.249Z,31.40
2022-08-19T15:36:00.990Z,31.20
2022-08-19T15:38:46.772Z,31.10
2022-08-19T15:41:34.492Z,31.20
2022-08-19T15:44:22.740Z,31.30
2022-08-19T15:47:08.265Z,31.60
2022-08-19T15:49:56.691Z,31.70
2022-08-19T15:52:51.612Z,31.70
2022-08-19T15:55:43.983Z,31.70
2022-08-19T15:58:48.141Z,31.60
2022-08-19T16:01:53.184Z,31.40
2022-08-19T16:04:56.981Z,31.10
2022-08-19T16:07:43.149Z,30.90
2022-08-19T16:10:29.187Z,30.60
2022-08-19T16:13:14.668Z,30.30
2022-08-19T16:16:00.172Z,30.20
2022-08-19T16:18:47.331Z,29.90
2022-08-19T16:21:34.299Z,29.80
2022-08-19T16:24:23.679Z,29.70
2022-08-19T16:27:09.514Z,29.60
2022-08-19T16:29:55.076Z,29.60
2022-08-19T16:32:43.922Z,29.60
2022-08-19T16:35:29.862Z,29.60
2022-08-19T16:38:15.647Z,29.60
2022-08-19T16:41:01.717Z,29.50
2022-08-19T16:43:49.305Z,29.50
2022-08-19T16:46:36.117Z,29.40
2022-08-19T16:49:52.172Z,29.40
2022-08-19T16:52:27.993Z,29.30
2022-08-19T16:55:13.707Z,29.30
2022-08-19T16:58:04.330Z,29.20
2022-08-19T17:00:50.052Z,29.20
2022-08-19T17:03:37.560Z,29.10
2022-08-19T17:06:28.799Z,29.10
2022-08-19T17:09:16.046Z,29.10
2022-08-19T17:12:02.043Z,29.10
2022-08-19T17:14:47.691Z,29.00
2022-08-19T17:17:33.352Z,29.00
2022-08-19T17:20:19.645Z,29.00
2022-08-19T17:23:05.569Z,29.00
2022-08-19T17:25:51.721Z,29.00
2022-08-19T17:28:37.588Z,29.00
2022-08-19T17:31:24.866Z,28.90
2022-08-19T17:34:10.678Z,28.90
2022-08-19T17:36:57.005Z,28.90
2022-08-19T17:39:42.634Z,28.90
2022-08-19T17:42:28.319Z,28.90
2022-08-19T17:45:14.655Z,28.90
2022-08-19T17:48:01.404Z,28.80
2022-08-19T17:50:47.732Z,28.80
2022-08-19T17:53:33.601Z,28.80
2022-08-19T17:56:21.708Z,28.80
2022-08-19T17:59:11.781Z,28.70
2022-08-19T18:02:00.263Z,28.70
2022-08-19T18:04:48.803Z,28.70
2022-08-19T18:07:34.661Z,28.70
2022-08-19T18:10:23.144Z,28.70
2022-08-19T18:13:18.112Z,28.70
2022-08-19T18:16:10.323Z,28.60
2022-08-19T18:18:55.984Z,28.60
2022-08-19T18:21:41.415Z,28.60
2022-08-19T18:24:27.078Z,28.50
2022-08-19T18:27:13.124Z,28.50
2022-08-19T18:29:59.672Z,28.50
2022-08-19T18:32:49.287Z,28.40
2022-08-19T18:35:38.568Z,28.40
2022-08-19T18:38:42.655Z,28.20
2022-08-19T18:41:46.958Z,28.10
2022-08-19T18:44:50.915Z,28.00
2022-08-19T18:47:54.958Z,28.00
2022-08-19T18:50:43.829Z,27.90
2022-08-19T18:53:33.529Z,27.80
2022-08-19T18:56:20.285Z,27.80
2022-08-19T18:59:05.908Z,27.70
2022-08-19T19:01:54.360Z,27.70
2022-08-19T19:04:40.448Z,27.60
2022-08-19T19:07:27.449Z,27.60
2022-08-19T19:10:13.241Z,27.60
2022-08-19T19:13:01.313Z,27.60
2022-08-19T19:15:46.632Z,27.50
2022-08-19T19:18:33.378Z,27.50
2022-08-19T19:21:20.993Z,27.50
2022-08-19T19:24:08.994Z,27.40
2022-08-19T19:26:55.553Z,27.40
2022-08-19T19:29:42.389Z,27.40
2022-08-19T19:32:36.907Z,27.40
2022-08-19T19:35:24.627Z,27.30
2022-08-19T19:38:10.569Z,27.30
2022-08-19T19:40:56.534Z,27.30
2022-08-19T19:43:43.040Z,27.30
2022-08-19T19:46:29.831Z,27.20
2022-08-19T19:49:15.406Z,27.20
2022-08-19T19:52:00.909Z,27.20
2022-08-19T19:54:47.849Z,27.20
2022-08-19T19:57:33.349Z,27.20
2022-08-19T20:00:19.667Z,27.20
2022-08-19T20:03:06.423Z,27.20
2022-08-19T20:05:52.519Z,27.20
2022-08-19T20:08:58.932Z,27.20
2022-08-19T20:11:57.016Z,27.10
2022-08-19T20:14:43.645Z,27.10
2022-08-19T20:17:29.151Z,27.20
2022-08-19T20:20:16.174Z,27.10
2022-08-19T20:23:01.761Z,27.10
2022-08-19T20:25:48.075Z,27.10
2022-08-19T20:28:33.704Z,27.00
2022-08-19T20:31:20.326Z,27.00
2022-08-19T20:34:05.826Z,27.00
2022-08-19T20:36:51.372Z,26.90
2022-08-19T20:39:37.644Z,26.90
2022-08-19T20:42:23.917Z,26.90
2022-08-19T20:45:28.096Z,26.80
2022-08-19T20:48:18.201Z,26.70
2022-08-19T20:51:04.487Z,26.70
2022-08-19T20:53:51.169Z,26.70
2022-08-19T20:56:36.804Z,26.70
2022-08-19T20:59:23.865Z,26.70
2022-08-19T21:02:10.357Z,26.70
2022-08-19T21:04:56.652Z,26.70
2022-08-19T21:07:46.325Z,26.70
2022-08-19T21:10:32.618Z,26.70
2022-08-19T21:13:19.976Z,26.80
2022-08-19T21:16:09.012Z,26.80
2022-08-19T21:18:55.208Z,26.80
2022-08-19T21:21:40.867Z,26.70
2022-08-19T21:24:31.572Z,26.60
2022-08-19T21:27:17.429Z,26.50
2022-08-19T21:30:04.413Z,26.40
2022-08-19T21:32:52.559Z,26.30
2022-08-19T21:35:38.945Z,26.30
2022-08-19T21:38:24.785Z,26.30
2022-08-19T21:41:10.449Z,26.30
2022-08-19T21:43:55.871Z,26.20
2022-08-19T21:46:41.490Z,26.10
2022-08-19T21:49:28.032Z,26.10
2022-08-19T21:52:13.839Z,26.10
2022-08-19T21:54:59.466Z,26.10
2022-08-19T21:57:44.984Z,26.10
2022-08-19T22:00:34.561Z,26.20
2022-08-19T22:03:21.501Z,26.20
2022-08-19T22:06:08.427Z,26.20
2022-08-19T22:08:56.979Z,26.10
2022-08-19T22:11:44.454Z,26.10
2022-08-19T22:14:30.184Z,26.10
2022-08-19T22:17:16.569Z,26.00
2022-08-19T22:20:04.069Z,26.00
2022-08-19T22:22:56.957Z,25.90
2022-08-19T22:25:45.653Z,25.90
2022-08-19T22:28:31.129Z,25.90
2022-08-19T22:31:18.365Z,25.80
2022-08-19T22:34:06.417Z,25.80
2022-08-19T22:36:52.348Z,25.90
2022-08-19T22:39:37.970Z,25.80
2022-08-19T22:42:25.361Z,25.80
2022-08-19T22:45:18.013Z,25.70
2022-08-19T22:48:07.866Z,25.70
2022-08-19T22:51:12.108Z,25.70
2022-08-19T22:53:57.775Z,25.70
2022-08-19T22:56:43.554Z,25.60
2022-08-19T22:59:29.621Z,25.70
2022-08-19T23:02:24.537Z,25.70
2022-08-19T23:05:11.166Z,25.70
2022-08-19T23:07:58.580Z,25.70
2022-08-19T23:10:44.257Z,25.60
2022-08-19T23:13:31.817Z,25.70
2022-08-19T23:16:17.693Z,25.60
2022-08-19T23:19:03.341Z,25.50
2022-08-19T23:21:49.849Z,25.60
2022-08-19T23:24:35.578Z,25.50
2022-08-19T23:27:39.418Z,25.50
2022-08-19T23:30:27.694Z,25.50
2022-08-19T23:33:21.525Z,25.40
2022-08-19T23:36:11.968Z,25.40
2022-08-19T23:38:59.620Z,25.40
2022-08-19T23:41:45.171Z,25.30
2022-08-19T23:44:30.617Z,25.30
2022-08-19T23:47:16.188Z,25.30
2022-08-19T23:50:06.395Z,25.30
2022-08-19T23:52:55.103Z,25.30
2022-08-19T23:55:44.113Z,25.30
2022-08-19T23:58:30.238Z,25.30
